Time;durP1;ratioP1;P1;durP2;ratioP2;P2;SDS_P1;SDS_P2;PMS_P1;PMS_P2;Temp;Humidity;BMP_temperature;BMP_pressure;BME280_temperature;BME280_humidity;BME280_pressure;Samples;Min_cycle;Max_cycle;Signal;HPM_P1;HPM_P2
2023/05/13 00:01:20;;;;;;;7.20;3.90;;;;;;;13.14;59.96;101260.91;107232;1257;61310;-67
2023/05/13 00:03:46;;;;;;;6.60;3.70;;;;;;;13.10;60.39;101258.84;108492;1257;59444;-69
2023/05/13 00:06:13;;;;;;;5.30;3.70;;;;;;;13.05;60.44;101256.34;107041;1257;74979;-69
2023/05/13 00:08:40;;;;;;;5.00;3.80;;;;;;;13.00;60.69;101255.10;107629;1256;71022;-70
2023/05/13 00:11:07;;;;;;;5.90;3.90;;;;;;;12.97;60.70;101256.90;107066;1254;71875;-69
2023/05/13 00:13:33;;;;;;;6.20;3.70;;;;;;;12.93;60.79;101257.23;106792;1256;61493;-69
2023/05/13 00:16:01;;;;;;;7.60;3.80;;;;;;;12.89;60.82;101260.70;107321;1257;59334;-69
2023/05/13 00:18:27;;;;;;;6.00;3.90;;;;;;;12.85;60.85;101257.77;107056;1257;73246;-69
2023/05/13 00:20:55;;;;;;;5.70;3.60;;;;;;;12.81;61.26;101256.27;107876;1255;69944;-70
2023/05/13 00:23:21;;;;;;;6.60;3.60;;;;;;;12.79;61.10;101254.42;106960;1257;70677;-70
2023/05/13 00:25:48;;;;;;;6.00;3.90;;;;;;;12.76;61.21;101256.70;107196;1258;60874;-69
2023/05/13 00:28:15;;;;;;;7.00;3.80;;;;;;;12.74;61.27;101258.66;107123;1257;61275;-68
2023/05/13 00:30:44;;;;;;;6.70;3.60;;;;;;;12.72;61.46;101257.52;107111;1256;75778;-69
2023/05/13 00:33:11;;;;;;;5.90;3.80;;;;;;;12.71;61.48;101259.09;106916;1260;69852;-70
2023/05/13 00:35:37;;;;;;;6.90;3.70;;;;;;;12.69;61.49;101261.96;107027;1257;71161;-69
2023/05/13 00:38:04;;;;;;;5.20;3.90;;;;;;;12.67;61.50;101259.19;107192;1258;61968;-69
2023/05/13 00:40:32;;;;;;;7.90;4.20;;;;;;;12.63;61.54;101264.73;108226;1259;59237;-70
2023/05/13 00:42:59;;;;;;;6.10;3.90;;;;;;;12.59;61.80;101260.58;107680;1259;74426;-70
2023/05/13 00:45:26;;;;;;;5.80;3.90;;;;;;;12.55;61.74;101263.70;107034;1257;70809;-69
2023/05/13 00:47:53;;;;;;;6.40;3.90;;;;;;;12.51;62.03;101269.84;107231;1259;71434;-71
2023/05/13 00:50:20;;;;;;;6.20;3.90;;;;;;;12.44;62.37;101270.40;106902;1258;61754;-68
2023/05/13 00:52:49;;;;;;;6.20;4.10;;;;;;;12.36;62.84;101269.38;107138;1259;61167;-69
2023/05/13 00:55:16;;;;;;;6.20;4.00;;;;;;;12.28;62.97;101275.75;107275;1259;73277;-68
2023/05/13 00:57:43;;;;;;;6.40;4.10;;;;;;;12.21;63.32;101275.84;107716;1257;69757;-70
2023/05/13 01:00:10;;;;;;;6.40;4.20;;;;;;;12.12;63.72;101276.64;107396;1259;71166;-70
2023/05/13 01:03:00;;;;;;;8.20;4.60;;;;;;;12.06;64.08;101278.22;107016;1259;61218;-69
2023/05/13 01:06:10;;;;;;;6.70;4.60;;;;;;;11.99;64.74;101281.69;106934;1257;61291;-68
2023/05/13 01:08:53;;;;;;;6.70;4.30;;;;;;;11.88;65.31;101283.40;107015;1259;74300;-69
2023/05/13 01:11:27;;;;;;;6.10;4.80;;;;;;;11.79;65.68;101282.33;107474;1257;71738;-69
2023/05/13 01:14:15;;;;;;;5.80;4.40;;;;;;;11.72;66.07;101280.81;107167;1257;71471;-70
2023/05/13 01:16:51;;;;;;;9.50;5.20;;;;;;;11.64;66.17;101281.50;107737;1256;61758;-69
2023/05/13 01:19:34;;;;;;;8.30;4.70;;;;;;;11.55;66.67;101279.66;107056;1257;61224;-70
2023/05/13 01:22:00;;;;;;;5.90;4.70;;;;;;;11.43;67.46;101275.45;107445;1259;74402;-70
2023/05/13 01:24:27;;;;;;;8.60;4.70;;;;;;;11.36;67.87;101273.41;107103;1259;61273;-69
2023/05/13 01:26:54;;;;;;;6.90;4.80;;;;;;;11.30;68.47;101275.17;107485;1259;73027;-72
2023/05/13 01:29:21;;;;;;;6.20;4.80;;;;;;;11.23;69.00;101276.84;107696;1256;62136;-68
2023/05/13 01:31:49;;;;;;;6.40;4.80;;;;;;;11.15;69.53;101276.43;107090;1256;61208;-70
2023/05/13 01:34:18;;;;;;;5.60;4.70;;;;;;;11.08;69.72;101280.00;107079;1259;74082;-70
2023/05/13 01:36:46;;;;;;;6.50;4.80;;;;;;;11.01;70.32;101281.71;107895;1257;70541;-70
2023/05/13 01:39:13;;;;;;;6.10;5.10;;;;;;;10.95;70.50;101281.84;106996;1259;71298;-69
2023/05/13 01:41:39;;;;;;;7.20;5.10;;;;;;;10.90;70.93;101281.14;107277;1257;61250;-70
2023/05/13 01:44:06;;;;;;;6.70;5.00;;;;;;;10.86;71.20;101282.48;107051;1257;61226;-69
2023/05/13 01:46:33;;;;;;;6.70;5.00;;;;;;;10.82;71.63;101280.11;107508;1259;73276;-69
2023/05/13 01:49:00;;;;;;;8.50;5.30;;;;;;;10.78;71.88;101278.91;107325;1257;69927;-70
2023/05/13 01:51:26;;;;;;;8.10;5.10;;;;;;;10.73;71.91;101279.61;107303;1256;72686;-68
2023/05/13 01:53:53;;;;;;;8.30;5.10;;;;;;;10.69;72.25;101279.52;107938;1260;61339;-70
2023/05/13 01:56:21;;;;;;;6.90;5.40;;;;;;;10.65;72.41;101277.64;106815;1259;61122;-71
2023/05/13 01:58:47;;;;;;;8.90;5.40;;;;;;;10.62;72.68;101275.86;107453;1256;73652;-69
2023/05/13 02:01:14;;;;;;;6.80;5.40;;;;;;;10.57;72.97;101277.92;106936;1257;70985;-70
2023/05/13 02:03:41;;;;;;;7.00;5.60;;;;;;;10.53;73.14;101277.47;106830;1257;72512;-70
2023/05/13 02:06:08;;;;;;;7.00;5.40;;;;;;;10.49;73.62;101281.54;107590;1259;61345;-69
2023/05/13 02:08:35;;;;;;;8.90;5.70;;;;;;;10.46;73.82;101277.84;107627;1256;61237;-70
2023/05/13 02:11:01;;;;;;;8.00;5.80;;;;;;;10.41;74.39;101278.85;107595;1257;74544;-74
2023/05/13 02:13:28;;;;;;;7.90;5.30;;;;;;;10.37;74.30;101281.78;107704;1256;69326;-69
2023/05/13 02:15:55;;;;;;;7.70;5.90;;;;;;;10.33;74.61;101281.10;107162;1259;71112;-69
2023/05/13 02:18:22;;;;;;;7.40;5.80;;;;;;;10.29;74.63;101280.42;107802;1255;61199;-69
2023/05/13 02:20:50;;;;;;;8.80;5.80;;;;;;;10.25;74.89;101280.86;107779;1259;61244;-68
2023/05/13 02:23:16;;;;;;;9.00;5.90;;;;;;;10.18;75.32;101281.52;107304;1260;73950;-69
2023/05/13 02:25:43;;;;;;;7.20;5.70;;;;;;;10.14;75.46;101281.41;107118;1257;71198;-69
2023/05/13 02:28:10;;;;;;;12.20;6.10;;;;;;;10.10;75.78;101274.02;107177;1257;72483;-70
2023/05/13 02:30:36;;;;;;;7.20;5.70;;;;;;;10.07;75.80;101278.67;107437;1260;61327;-69
2023/05/13 02:33:03;;;;;;;11.30;5.50;;;;;;;10.03;75.97;101274.44;107321;1257;61224;-72
2023/05/13 02:35:30;;;;;;;8.80;6.10;;;;;;;10.01;76.02;101277.11;107009;1257;74711;-69
2023/05/13 02:37:57;;;;;;;9.20;5.80;;;;;;;9.99;76.42;101278.94;106781;1260;71066;-69
2023/05/13 02:40:24;;;;;;;8.60;5.70;;;;;;;9.95;76.87;101280.36;107029;1259;72693;-69
2023/05/13 02:42:50;;;;;;;8.00;5.90;;;;;;;9.92;76.95;101283.17;107845;1257;61342;-70
2023/05/13 02:45:17;;;;;;;10.10;6.20;;;;;;;9.89;77.28;101280.80;107379;1260;61251;-70
2023/05/13 02:47:44;;;;;;;9.10;6.00;;;;;;;9.87;77.18;101282.48;107233;1260;74685;-69
2023/05/13 02:50:12;;;;;;;8.60;6.20;;;;;;;9.85;77.55;101279.45;107418;1261;70356;-71
2023/05/13 02:52:39;;;;;;;7.90;6.20;;;;;;;9.82;78.05;101278.90;107081;1255;70233;-69
2023/05/13 02:55:06;;;;;;;6.70;6.00;;;;;;;9.78;77.82;101281.13;107179;1259;61359;-69
2023/05/13 02:57:34;;;;;;;7.70;5.90;;;;;;;9.76;78.02;101277.50;106677;1256;62709;-74
2023/05/13 03:00:01;;;;;;;8.90;6.00;;;;;;;9.74;78.22;101278.05;107613;1257;74450;-68
2023/05/13 03:02:28;;;;;;;8.50;6.40;;;;;;;9.72;78.57;101276.39;107432;1256;69833;-69
2023/05/13 03:04:55;;;;;;;6.90;6.20;;;;;;;9.70;79.01;101277.59;107233;1258;73163;-69
2023/05/13 03:07:22;;;;;;;10.10;6.20;;;;;;;9.68;78.76;101279.04;107613;1256;61167;-68
2023/05/13 03:09:50;;;;;;;9.00;6.00;;;;;;;9.67;79.05;101278.99;107528;1260;59222;-70
2023/05/13 03:12:16;;;;;;;8.70;6.20;;;;;;;9.65;79.12;101278.98;107338;1256;74475;-70
2023/05/13 03:14:43;;;;;;;9.50;6.60;;;;;;;9.65;79.29;101279.05;107471;1256;70223;-69
2023/05/13 03:17:10;;;;;;;8.50;6.60;;;;;;;9.65;79.23;101283.77;107690;1257;71272;-69
2023/05/13 03:19:37;;;;;;;9.00;6.20;;;;;;;9.64;79.27;101286.02;107751;1257;61260;-70
2023/05/13 03:22:05;;;;;;;11.10;6.20;;;;;;;9.63;79.44;101286.27;107317;1259;61170;-68
2023/05/13 03:24:31;;;;;;;7.60;6.00;;;;;;;9.63;79.55;101292.27;107513;1258;73270;-70
2023/05/13 03:26:58;;;;;;;7.70;6.30;;;;;;;9.62;79.73;101288.80;107135;1256;71054;-69
2023/05/13 03:29:25;;;;;;;9.10;6.30;;;;;;;9.63;80.08;101292.66;107461;1259;71448;-69
2023/05/13 03:31:53;;;;;;;8.90;6.50;;;;;;;9.63;80.33;101289.66;106644;1258;61164;-70
2023/05/13 03:34:19;;;;;;;9.40;6.20;;;;;;;9.63;80.32;101293.89;107233;1257;62011;-70
2023/05/13 03:36:46;;;;;;;6.80;6.10;;;;;;;9.64;80.49;101292.05;107145;1255;74790;-70
2023/05/13 03:39:13;;;;;;;8.10;6.30;;;;;;;9.64;80.27;101294.66;107161;1257;69772;-71
2023/05/13 03:41:40;;;;;;;8.50;6.00;;;;;;;9.65;80.39;101298.42;106918;1257;73205;-69
2023/05/13 03:44:06;;;;;;;9.00;6.40;;;;;;;9.66;80.19;101300.26;107858;1256;61156;-69
2023/05/13 03:46:33;;;;;;;9.50;6.10;;;;;;;9.67;80.20;101299.77;107052;1256;61237;-74
2023/05/13 03:49:00;;;;;;;9.50;6.10;;;;;;;9.68;80.21;101302.52;107147;1260;74663;-70
2023/05/13 03:51:27;;;;;;;6.90;5.80;;;;;;;9.69;80.58;101303.67;107034;1260;69686;-70
2023/05/13 03:53:54;;;;;;;7.80;6.00;;;;;;;9.69;80.58;101313.89;107458;1257;71592;-69
2023/05/13 03:56:20;;;;;;;9.20;6.20;;;;;;;9.70;80.62;101310.05;107468;1259;61113;-70
2023/05/13 03:58:47;;;;;;;10.80;6.40;;;;;;;9.72;80.76;101314.64;107135;1258;61179;-70
2023/05/13 04:01:14;;;;;;;9.30;5.90;;;;;;;9.75;80.72;101312.41;107309;1258;73158;-70
2023/05/13 04:03:44;;;;;;;7.10;6.10;;;;;;;9.78;80.86;101319.31;108002;1258;71174;-69
2023/05/13 04:06:13;;;;;;;7.20;5.90;;;;;;;9.84;81.11;101322.87;106672;1256;72367;-69
2023/05/13 04:08:40;;;;;;;8.10;5.80;;;;;;;9.90;81.38;101319.40;106252;1259;61286;-69
2023/05/13 04:11:07;;;;;;;8.90;5.90;;;;;;;9.94;81.18;101322.30;107175;1258;61099;-69
2023/05/13 04:13:34;;;;;;;8.70;6.10;;;;;;;9.99;81.13;101317.41;106575;1258;73960;-69
2023/05/13 04:16:02;;;;;;;6.40;5.70;;;;;;;10.05;81.03;101316.71;106502;1260;69934;-69
2023/05/13 04:18:30;;;;;;;7.30;6.00;;;;;;;10.10;80.93;101321.91;106337;1261;72769;-69
2023/05/13 04:20:57;;;;;;;9.20;5.90;;;;;;;10.17;80.75;101327.40;106809;1260;61762;-69
2023/05/13 04:23:24;;;;;;;7.60;5.80;;;;;;;10.25;80.86;101321.56;106583;1257;61183;-72
2023/05/13 04:25:51;;;;;;;7.30;5.80;;;;;;;10.29;80.91;101322.85;106328;1258;74403;-70
2023/05/13 04:28:19;;;;;;;8.10;5.80;;;;;;;10.34;80.74;101324.56;106781;1257;68665;-69
2023/05/13 04:30:46;;;;;;;7.70;5.50;;;;;;;10.37;80.41;101322.60;108873;1259;71552;-70
2023/05/13 04:33:12;;;;;;;8.00;5.60;;;;;;;10.42;80.30;101317.55;109078;1255;61975;-69
2023/05/13 04:35:39;;;;;;;7.10;5.70;;;;;;;10.46;80.12;101317.80;107775;1256;61830;-68
2023/05/13 04:38:06;;;;;;;6.80;5.50;;;;;;;10.51;79.87;101316.37;107773;1259;73479;-67
2023/05/13 04:40:33;;;;;;;8.50;5.70;;;;;;;10.57;79.54;101318.44;107711;1257;70100;-66
2023/05/13 04:43:00;;;;;;;9.60;5.50;;;;;;;10.64;79.71;101319.99;106821;1257;71110;-68
2023/05/13 04:45:26;;;;;;;7.40;5.50;;;;;;;10.71;79.35;101317.13;106591;1256;61244;-69
2023/05/13 04:47:53;;;;;;;6.00;4.60;;;;;;;10.79;79.01;101318.92;106643;1257;60199;-68
2023/05/13 04:50:23;;;;;;;7.50;5.00;;;;;;;10.90;78.59;101322.89;106820;1257;74641;-71
2023/05/13 04:52:53;;;;;;;7.20;5.00;;;;;;;11.02;78.35;101324.13;106435;1260;71017;-68
2023/05/13 04:55:21;;;;;;;6.50;4.80;;;;;;;11.13;77.56;101327.64;107464;1256;72373;-69
2023/05/13 04:57:48;;;;;;;6.90;4.50;;;;;;;11.23;76.88;101330.05;107231;1258;61883;-68
2023/05/13 05:00:15;;;;;;;7.30;4.70;;;;;;;11.35;76.55;101333.95;106499;1257;61240;-69
2023/05/13 05:02:41;;;;;;;9.60;4.70;;;;;;;11.47;75.95;101337.27;106481;1259;75151;-68
2023/05/13 05:05:09;;;;;;;8.50;4.40;;;;;;;11.57;75.28;101336.68;106642;1257;72068;-69
2023/05/13 05:07:39;;;;;;;9.70;4.90;;;;;;;11.67;74.97;101336.48;107121;1256;72372;-69
2023/05/13 05:10:07;;;;;;;14.30;4.80;;;;;;;11.77;74.58;101336.50;106889;1256;62051;-70
2023/05/13 05:12:34;;;;;;;6.20;4.10;;;;;;;11.89;74.33;101339.86;106734;1258;61218;-68
2023/05/13 05:15:00;;;;;;;6.60;4.30;;;;;;;11.98;73.71;101340.59;106963;1257;73131;-68
2023/05/13 05:17:31;;;;;;;9.40;4.40;;;;;;;12.07;73.24;101344.60;107089;1257;69655;-69
2023/05/13 05:19:58;;;;;;;6.80;4.60;;;;;;;12.18;72.93;101347.14;106143;1257;72688;-69
2023/05/13 05:22:26;;;;;;;7.20;4.60;;;;;;;12.26;72.59;101345.69;106509;1257;61720;-70
2023/05/13 05:24:52;;;;;;;7.70;4.30;;;;;;;12.36;72.05;101347.59;107515;1256;61247;-67
2023/05/13 05:27:19;;;;;;;9.30;4.60;;;;;;;12.43;71.46;101346.23;106784;1256;74840;-69
2023/05/13 05:29:46;;;;;;;7.40;4.10;;;;;;;12.52;71.06;101348.88;106763;1258;71466;-73
2023/05/13 05:32:13;;;;;;;5.20;4.00;;;;;;;12.60;70.89;101351.61;106168;1256;73594;-70
2023/05/13 05:34:39;;;;;;;6.90;4.60;;;;;;;12.71;70.65;101353.70;106387;1257;61894;-70
2023/05/13 05:37:06;;;;;;;7.50;3.80;;;;;;;12.81;70.58;101356.24;107107;1256;61183;-68
2023/05/13 05:39:34;;;;;;;6.70;4.40;;;;;;;12.91;70.12;101355.08;106567;1257;74440;-69
2023/05/13 05:42:00;;;;;;;7.50;4.50;;;;;;;13.02;69.98;101359.49;106682;1256;68976;-68
2023/05/13 05:44:27;;;;;;;6.80;4.30;;;;;;;13.15;69.72;101363.41;107027;1257;71775;-71
2023/05/13 05:46:54;;;;;;;8.70;4.40;;;;;;;13.27;69.52;101362.33;106935;1255;61272;-68
2023/05/13 05:49:21;;;;;;;7.20;4.10;;;;;;;13.37;68.83;101362.33;106448;1257;61240;-68
2023/05/13 05:51:47;;;;;;;6.60;4.30;;;;;;;13.45;68.46;101356.27;106246;1257;73161;-72
2023/05/13 05:54:14;;;;;;;7.00;3.80;;;;;;;13.55;67.79;101355.80;106904;1260;70764;-70
2023/05/13 05:56:41;;;;;;;6.20;3.80;;;;;;;13.66;67.45;101358.61;106345;1257;71114;-68
2023/05/13 05:59:08;;;;;;;8.00;4.30;;;;;;;13.75;66.83;101358.08;106681;1257;61710;-68
2023/05/13 06:01:35;;;;;;;7.00;4.30;;;;;;;13.88;66.66;101355.66;106709;1255;61161;-67
2023/05/13 06:04:03;;;;;;;6.10;3.90;;;;;;;14.01;66.14;101358.91;106844;1255;73464;-67
2023/05/13 06:06:31;;;;;;;7.10;4.00;;;;;;;14.14;65.94;101359.97;106842;1256;69972;-68
2023/05/13 06:08:57;;;;;;;7.20;4.00;;;;;;;14.27;65.92;101360.45;106597;1256;70323;-68
2023/05/13 06:11:24;;;;;;;7.80;4.20;;;;;;;14.43;65.66;101360.89;106315;1257;62531;-66
2023/05/13 06:13:52;;;;;;;6.40;3.70;;;;;;;14.58;65.05;101363.08;106939;1257;59212;-67
2023/05/13 06:16:18;;;;;;;9.50;4.10;;;;;;;14.73;64.48;101361.30;106920;1257;74686;-69
2023/05/13 06:18:45;;;;;;;6.80;4.00;;;;;;;14.85;63.97;101360.67;107209;1257;71196;-69
2023/05/13 06:21:12;;;;;;;6.70;4.10;;;;;;;14.97;63.67;101355.52;107617;1257;71996;-69
2023/05/13 06:23:39;;;;;;;7.90;4.10;;;;;;;15.11;63.22;101358.26;107675;1256;61266;-68
2023/05/13 06:26:05;;;;;;;7.30;3.90;;;;;;;15.24;62.84;101358.78;106769;1257;61342;-70
2023/05/13 06:28:32;;;;;;;8.40;3.70;;;;;;;15.38;61.91;101357.94;106498;1258;61157;-68
2023/05/13 06:30:59;;;;;;;7.50;4.20;;;;;;;15.45;60.98;101357.42;107700;1256;71366;-67
2023/05/13 06:33:25;;;;;;;6.10;3.80;;;;;;;15.55;61.04;101360.69;107146;1256;70204;-69
2023/05/13 06:35:52;;;;;;;5.90;3.70;;;;;;;15.65;60.83;101361.27;107121;1256;61226;-68
2023/05/13 06:38:18;;;;;;;5.30;3.90;;;;;;;15.78;61.13;101365.08;108241;1257;59110;-68
2023/05/13 06:40:45;;;;;;;6.70;3.70;;;;;;;15.90;60.11;101366.98;107277;1257;73984;-69
2023/05/13 06:43:13;;;;;;;4.70;3.80;;;;;;;15.97;59.55;101364.16;107779;1256;61227;-69
2023/05/13 06:45:40;;;;;;;6.40;3.70;;;;;;;16.02;59.44;101365.81;106859;1256;71440;-71
2023/05/13 06:48:07;;;;;;;5.50;3.80;;;;;;;16.09;59.62;101366.40;107751;1256;61253;-71
2023/05/13 06:50:34;;;;;;;6.10;3.70;;;;;;;16.20;59.50;101369.98;107515;1255;61238;-71
2023/05/13 06:53:00;;;;;;;6.60;3.70;;;;;;;16.29;58.97;101368.64;107525;1255;74687;-71
2023/05/13 06:55:27;;;;;;;5.30;3.60;;;;;;;16.38;58.18;101363.30;107781;1256;71145;-71
2023/05/13 06:57:53;;;;;;;4.70;3.50;;;;;;;16.45;57.23;101364.86;106803;1256;71797;-74
2023/05/13 07:00:20;;;;;;;7.00;3.70;;;;;;;16.53;56.98;101364.45;107018;1256;61228;-72
2023/05/13 07:02:47;;;;;;;6.90;3.60;;;;;;;16.61;56.86;101365.04;107128;1256;61256;-72
2023/05/13 07:05:14;;;;;;;5.80;3.60;;;;;;;16.67;56.89;101363.70;107338;1256;74518;-69
2023/05/13 07:07:42;;;;;;;4.90;3.60;;;;;;;16.76;55.90;101361.23;109071;1255;70002;-71
2023/05/13 07:10:09;;;;;;;5.80;3.50;;;;;;;16.81;55.47;101361.16;108259;1256;71439;-71
2023/05/13 07:12:36;;;;;;;7.90;3.30;;;;;;;16.85;55.46;101361.79;108309;1256;62481;-72
2023/05/13 07:15:03;;;;;;;5.70;3.60;;;;;;;16.95;55.80;101358.02;107345;1257;61232;-71
2023/05/13 07:17:30;;;;;;;6.30;3.60;;;;;;;17.05;55.13;101356.66;106796;1256;74081;-72
2023/05/13 07:19:57;;;;;;;5.80;3.70;;;;;;;17.14;54.88;101356.40;106393;1257;69760;-72
2023/05/13 07:22:23;;;;;;;4.80;3.30;;;;;;;17.20;54.60;101356.81;107000;1256;71222;-71
2023/05/13 07:24:50;;;;;;;6.10;3.50;;;;;;;17.26;55.24;101353.00;107023;1256;61352;-74
2023/05/13 07:27:16;;;;;;;4.10;3.60;;;;;;;17.38;54.87;101354.84;106629;1256;59684;-72
2023/05/13 07:29:43;;;;;;;7.20;4.00;;;;;;;17.50;54.48;101352.84;107904;1254;74437;-69
2023/05/13 07:32:10;;;;;;;7.40;3.50;;;;;;;17.66;53.68;101348.73;109121;1256;70246;-70
2023/05/13 07:34:37;;;;;;;6.50;3.40;;;;;;;17.79;53.98;101347.73;108910;1255;73175;-73
2023/05/13 07:37:04;;;;;;;5.30;3.80;;;;;;;17.94;53.55;101347.25;106977;1255;61152;-72
2023/05/13 07:39:30;;;;;;;7.90;3.60;;;;;;;17.96;52.80;101345.56;107839;1256;61568;-72
2023/05/13 07:41:57;;;;;;;5.50;3.50;;;;;;;18.04;52.42;101345.03;107060;1257;73143;-70
2023/05/13 07:44:24;;;;;;;7.20;3.80;;;;;;;18.11;52.56;101345.60;106901;1258;72488;-73
2023/05/13 07:46:52;;;;;;;5.90;3.40;;;;;;;18.18;51.73;101345.54;106647;1255;72650;-73
2023/05/13 07:49:20;;;;;;;8.40;3.70;;;;;;;18.24;51.67;101349.16;107551;1259;61261;-71
2023/05/13 07:51:46;;;;;;;5.60;3.80;;;;;;;18.30;52.14;101349.23;106467;1255;61237;-75
2023/05/13 07:54:13;;;;;;;6.60;4.00;;;;;;;18.38;52.43;101348.75;107364;1257;73992;-72
2023/05/13 07:56:40;;;;;;;9.00;4.40;;;;;;;18.46;51.78;101348.53;107248;1256;70015;-72
2023/05/13 07:59:06;;;;;;;7.80;4.00;;;;;;;18.54;51.99;101350.48;107486;1256;71472;-71
2023/05/13 08:01:33;;;;;;;6.90;3.80;;;;;;;18.63;52.33;101348.89;107003;1256;61351;-72
2023/05/13 08:03:59;;;;;;;5.40;3.80;;;;;;;18.70;52.65;101353.33;106538;1257;59994;-73
2023/05/13 08:06:27;;;;;;;6.00;3.80;;;;;;;18.72;52.26;101349.27;106892;1256;73116;-71
2023/05/13 08:08:53;;;;;;;5.10;3.70;;;;;;;18.76;51.97;101354.97;107845;1256;71467;-73
2023/05/13 08:11:20;;;;;;;5.80;4.00;;;;;;;18.85;52.00;101355.07;107999;1256;71144;-71
2023/05/13 08:13:48;;;;;;;6.60;4.10;;;;;;;18.99;51.54;101359.43;107660;1256;61618;-71
2023/05/13 08:16:14;;;;;;;6.50;4.10;;;;;;;19.11;51.24;101354.08;107979;1257;61244;-72
2023/05/13 08:18:41;;;;;;;8.50;4.50;;;;;;;19.24;51.01;101355.41;107703;1256;61174;-72
2023/05/13 08:21:08;;;;;;;8.30;4.40;;;;;;;19.30;50.17;101356.90;107947;1257;70084;-74
2023/05/13 08:23:36;;;;;;;6.20;4.20;;;;;;;19.40;50.60;101355.77;107831;1256;61145;-72
2023/05/13 08:26:11;;;;;;;7.60;4.20;;;;;;;19.51;51.12;101358.66;107033;1256;252411;-72
2023/05/13 08:28:38;;;;;;;8.20;4.00;;;;;;;19.62;51.23;101357.52;107839;1256;59133;-71
2023/05/13 08:31:05;;;;;;;5.00;3.90;;;;;;;19.76;50.48;101354.65;108084;1256;75101;-72
2023/05/13 08:33:32;;;;;;;8.10;3.90;;;;;;;19.82;48.98;101357.39;107425;1256;70150;-71
2023/05/13 08:35:59;;;;;;;6.80;3.90;;;;;;;19.89;48.81;101356.69;107635;1257;71426;-73
2023/05/13 08:38:26;;;;;;;6.90;3.80;;;;;;;20.00;49.34;101358.70;107505;1255;61586;-72
2023/05/13 08:40:53;;;;;;;7.00;4.00;;;;;;;20.10;48.46;101365.48;107923;1256;61237;-72
2023/05/13 08:43:23;;;;;;;6.50;3.80;;;;;;;20.20;48.58;101366.61;107098;1256;73457;-70
2023/05/13 08:45:52;;;;;;;8.50;5.00;;;;;;;20.30;48.41;101368.95;107874;1255;69761;-71
2023/05/13 08:48:19;;;;;;;7.50;4.20;;;;;;;20.38;48.04;101370.85;107818;1256;71831;-72
2023/05/13 08:50:47;;;;;;;6.70;3.90;;;;;;;20.45;47.63;101367.45;107718;1257;60311;-71
2023/05/13 08:53:15;;;;;;;5.90;3.60;;;;;;;20.54;47.44;101363.14;107676;1256;61340;-72
2023/05/13 08:55:42;;;;;;;9.30;5.20;;;;;;;20.56;46.27;101361.09;107583;1256;74724;-70
2023/05/13 08:58:09;;;;;;;6.60;3.70;;;;;;;20.64;46.43;101357.33;107750;1256;70965;-71
2023/05/13 09:00:36;;;;;;;7.00;3.90;;;;;;;20.77;45.98;101354.60;106936;1257;61880;-72
2023/05/13 09:03:02;;;;;;;6.30;3.80;;;;;;;20.83;45.43;101358.30;107569;1259;61151;-72
2023/05/13 09:05:30;;;;;;;7.00;4.10;;;;;;;20.91;45.55;101359.90;107853;1255;59212;-72
2023/05/13 09:07:57;;;;;;;5.70;3.30;;;;;;;21.03;46.16;101358.02;107331;1257;73525;-72
2023/05/13 09:10:24;;;;;;;6.30;3.90;;;;;;;21.20;45.50;101353.77;107674;1256;71511;-72
2023/05/13 09:12:53;;;;;;;6.20;3.80;;;;;;;21.29;45.04;101356.42;107365;1256;61292;-71
2023/05/13 09:15:22;;;;;;;5.20;3.70;;;;;;;21.41;44.48;101351.85;107866;1256;59449;-72
2023/05/13 09:17:54;;;;;;;5.80;3.70;;;;;;;21.49;43.92;101349.16;107069;1255;61113;-73
2023/05/13 09:20:24;;;;;;;5.20;3.50;;;;;;;21.54;43.81;101346.59;107354;1256;73812;-72
2023/05/13 09:22:53;;;;;;;7.60;3.70;;;;;;;21.64;44.33;101347.36;107754;1255;71030;-72
2023/05/13 09:25:22;;;;;;;8.50;3.40;;;;;;;21.75;44.60;101340.94;107320;1256;71961;-71
2023/05/13 09:28:01;;;;;;;8.50;4.20;;;;;;;21.87;44.49;101345.94;107070;1256;61182;-70
2023/05/13 09:30:51;;;;;;;16.10;6.10;;;;;;;22.05;44.40;101343.67;107284;1255;61225;-71
2023/05/13 09:33:21;;;;;;;3.90;3.00;;;;;;;22.21;43.90;101340.42;107831;1256;74410;-71
2023/05/13 09:35:53;;;;;;;6.80;3.10;;;;;;;22.25;41.94;101344.53;107493;1255;70233;-71
2023/05/13 09:38:30;;;;;;;5.60;3.20;;;;;;;22.28;41.40;101344.27;107540;1255;71801;-71
2023/05/13 09:40:59;;;;;;;6.40;3.40;;;;;;;22.32;42.41;101348.17;107367;1256;61275;-72
2023/05/13 09:43:30;;;;;;;7.10;3.00;;;;;;;22.35;42.42;101345.92;107686;1256;59639;-72
2023/05/13 09:46:02;;;;;;;5.40;3.30;;;;;;;22.37;41.81;101347.58;106889;1256;73297;-71
2023/05/13 09:48:31;;;;;;;7.00;3.20;;;;;;;22.41;42.28;101349.73;107489;1256;70975;-72
2023/05/13 09:50:58;;;;;;;8.80;3.20;;;;;;;22.45;41.46;101344.90;107868;1256;72468;-72
2023/05/13 09:53:26;;;;;;;4.80;3.20;;;;;;;22.49;41.29;101344.39;107271;1256;61725;-74
2023/05/13 09:55:57;;;;;;;6.10;3.10;;;;;;;22.58;41.00;101344.19;107127;1255;59525;-74
2023/05/13 09:58:27;;;;;;;4.80;3.50;;;;;;;22.71;41.69;101343.42;107457;1256;73308;-71
2023/05/13 10:00:54;;;;;;;5.10;3.20;;;;;;;22.81;41.55;101340.66;107768;1256;71144;-71
2023/05/13 10:03:21;;;;;;;6.80;3.00;;;;;;;22.95;41.52;101337.67;107019;1255;71296;-73
2023/05/13 10:05:49;;;;;;;6.50;3.10;;;;;;;23.04;40.61;101340.41;107640;1259;59367;-71
2023/05/13 10:08:17;;;;;;;5.70;3.00;;;;;;;23.11;40.86;101340.82;107583;1256;59311;-71
2023/05/13 10:10:46;;;;;;;4.70;2.80;;;;;;;23.20;40.88;101346.22;107723;1256;72110;-72
2023/05/13 10:13:22;;;;;;;5.60;3.10;;;;;;;23.22;39.91;101348.70;107789;1255;69735;-72
2023/05/13 10:15:51;;;;;;;8.10;3.20;;;;;;;23.27;40.16;101351.42;107109;1256;71758;-74
2023/05/13 10:18:19;;;;;;;5.20;3.10;;;;;;;23.32;39.87;101347.02;107477;1256;61253;-72
2023/05/13 10:20:51;;;;;;;6.10;3.90;;;;;;;23.37;39.94;101343.48;107482;1256;61721;-72
2023/05/13 10:23:21;;;;;;;6.20;3.00;;;;;;;23.47;40.21;101341.54;107511;1259;74657;-74
2023/05/13 10:25:48;;;;;;;4.10;2.70;;;;;;;23.43;39.82;101338.77;107445;1256;70201;-72
2023/05/13 10:28:16;;;;;;;5.80;2.80;;;;;;;23.47;40.40;101333.79;106966;1255;71441;-72
2023/05/13 10:30:43;;;;;;;5.80;2.60;;;;;;;23.52;39.30;101333.66;107254;1256;59616;-72
2023/05/13 10:33:10;;;;;;;5.50;2.70;;;;;;;23.51;37.97;101333.60;107319;1255;61413;-71
2023/05/13 10:35:41;;;;;;;3.80;2.40;;;;;;;23.42;37.63;101334.15;107498;1255;73927;-72
2023/05/13 10:38:16;;;;;;;4.50;2.80;;;;;;;23.36;37.68;101333.71;107195;1256;71016;-71
2023/05/13 10:41:10;;;;;;;6.60;3.20;;;;;;;23.39;38.66;101335.56;107553;1256;73403;-72
2023/05/13 10:43:37;;;;;;;5.20;2.70;;;;;;;23.49;37.78;101331.39;107315;1256;61237;-74
2023/05/13 10:46:06;;;;;;;6.40;2.90;;;;;;;23.57;37.77;101333.70;107620;1256;59354;-71
2023/05/13 10:48:46;;;;;;;4.00;2.50;;;;;;;23.66;37.83;101331.50;107371;1259;75703;-72
2023/05/13 10:51:14;;;;;;;4.70;2.60;;;;;;;23.70;37.30;101333.30;107101;1257;70998;-72
2023/05/13 10:53:52;;;;;;;4.20;2.50;;;;;;;23.86;37.33;101334.98;107373;1257;71560;-72
2023/05/13 10:56:24;;;;;;;5.50;2.60;;;;;;;23.96;36.17;101327.17;107195;1256;61334;-73
2023/05/13 10:58:58;;;;;;;4.80;2.60;;;;;;;24.12;36.44;101330.20;107262;1257;59263;-71
2023/05/13 11:01:32;;;;;;;6.00;2.50;;;;;;;24.27;36.07;101332.84;107104;1255;74441;-71
2023/05/13 11:04:01;;;;;;;5.00;2.60;;;;;;;24.37;35.35;101332.21;107625;1257;70974;-73
2023/05/13 11:06:34;;;;;;;4.50;2.40;;;;;;;24.53;35.53;101329.84;107896;1255;73215;-73
2023/05/13 11:09:13;;;;;;;5.60;2.80;;;;;;;24.68;35.65;101328.02;107297;1256;59711;-71
2023/05/13 11:11:45;;;;;;;7.20;2.40;;;;;;;24.67;34.83;101326.64;107833;1256;59486;-72
2023/05/13 11:14:22;;;;;;;3.90;2.60;;;;;;;24.60;35.72;101326.34;106996;1255;74464;-74
2023/05/13 11:17:01;;;;;;;4.70;2.60;;;;;;;24.55;34.84;101327.80;107126;1257;71796;-71
2023/05/13 11:19:30;;;;;;;3.90;2.40;;;;;;;24.71;35.51;101325.76;107413;1255;72438;-70
2023/05/13 11:22:11;;;;;;;4.80;2.00;;;;;;;24.90;35.91;101325.98;108909;1257;59971;-71